sensor_id;sensor_type;location;lat;lon;timestamp;P1;durP1;ratioP1;P2;durP2;ratioP2
26062;SDS011;13837;48.562;12.108;2022-12-18T00:01:22;76.80;;;52.17;;
26062;SDS011;13837;48.562;12.108;2022-12-18T00:03:53;72.30;;;50.78;;
26062;SDS011;13837;48.562;12.108;2022-12-18T00:06:20;79.82;;;53.60;;
26062;SDS011;13837;48.562;12.108;2022-12-18T00:08:47;75.95;;;52.42;;
26062;SDS011;13837;48.562;12.108;2022-12-18T00:11:14;77.38;;;53.67;;
26062;SDS011;13837;48.562;12.108;2022-12-18T00:13:41;74.93;;;52.13;;
26062;SDS011;13837;48.562;12.108;2022-12-18T00:16:08;79.45;;;52.08;;
26062;SDS011;13837;48.562;12.108;2022-12-18T00:18:37;84.78;;;54.45;;
26062;SDS011;13837;48.562;12.108;2022-12-18T00:21:04;83.38;;;51.33;;
26062;SDS011;13837;48.562;12.108;2022-12-18T00:23:31;73.70;;;52.83;;
26062;SDS011;13837;48.562;12.108;2022-12-18T00:25:59;77.72;;;53.50;;
26062;SDS011;13837;48.562;12.108;2022-12-18T00:28:26;67.63;;;52.55;;
26062;SDS011;13837;48.562;12.108;2022-12-18T00:33:28;69.45;;;53.25;;
26062;SDS011;13837;48.562;12.108;2022-12-18T00:35:53;69.07;;;53.25;;
26062;SDS011;13837;48.562;12.108;2022-12-18T00:38:19;72.43;;;52.92;;
26062;SDS011;13837;48.562;12.108;2022-12-18T00:40:45;70.45;;;52.60;;
26062;SDS011;13837;48.562;12.108;2022-12-18T00:43:11;75.57;;;53.42;;
26062;SDS011;13837;48.562;12.108;2022-12-18T00:45:37;78.47;;;56.28;;
26062;SDS011;13837;48.562;12.108;2022-12-18T00:48:03;75.97;;;54.15;;
26062;SDS011;13837;48.562;12.108;2022-12-18T00:50:29;71.28;;;55.72;;
26062;SDS011;13837;48.562;12.108;2022-12-18T00:52:55;83.10;;;54.60;;
26062;SDS011;13837;48.562;12.108;2022-12-18T00:55:20;80.05;;;54.35;;
26062;SDS011;13837;48.562;12.108;2022-12-18T00:57:46;69.63;;;53.00;;
26062;SDS011;13837;48.562;12.108;2022-12-18T01:00:13;78.25;;;55.90;;
26062;SDS011;13837;48.562;12.108;2022-12-18T01:02:40;70.40;;;53.22;;
26062;SDS011;13837;48.562;12.108;2022-12-18T01:05:06;77.13;;;55.42;;
26062;SDS011;13837;48.562;12.108;2022-12-18T01:07:33;73.53;;;54.08;;
26062;SDS011;13837;48.562;12.108;2022-12-18T01:10:01;71.60;;;53.60;;
26062;SDS011;13837;48.562;12.108;2022-12-18T01:12:27;66.35;;;52.60;;
26062;SDS011;13837;48.562;12.108;2022-12-18T01:14:53;72.90;;;56.10;;
26062;SDS011;13837;48.562;12.108;2022-12-18T01:17:19;75.60;;;53.35;;
26062;SDS011;13837;48.562;12.108;2022-12-18T01:19:45;77.68;;;54.90;;
26062;SDS011;13837;48.562;12.108;2022-12-18T01:22:11;78.95;;;53.67;;
26062;SDS011;13837;48.562;12.108;2022-12-18T01:24:37;74.63;;;53.65;;
26062;SDS011;13837;48.562;12.108;2022-12-18T01:27:02;72.57;;;55.42;;
26062;SDS011;13837;48.562;12.108;2022-12-18T01:29:28;73.68;;;54.05;;
26062;SDS011;13837;48.562;12.108;2022-12-18T01:31:54;76.93;;;55.65;;
26062;SDS011;13837;48.562;12.108;2022-12-18T01:34:21;78.30;;;54.65;;
26062;SDS011;13837;48.562;12.108;2022-12-18T01:36:48;80.00;;;55.83;;
26062;SDS011;13837;48.562;12.108;2022-12-18T01:39:14;73.85;;;54.15;;
26062;SDS011;13837;48.562;12.108;2022-12-18T01:41:41;75.63;;;53.95;;
26062;SDS011;13837;48.562;12.108;2022-12-18T01:50:02;76.43;;;52.70;;
26062;SDS011;13837;48.562;12.108;2022-12-18T01:52:34;71.82;;;50.53;;
26062;SDS011;13837;48.562;12.108;2022-12-18T01:55:02;74.03;;;52.83;;
26062;SDS011;13837;48.562;12.108;2022-12-18T01:57:29;77.30;;;55.47;;
26062;SDS011;13837;48.562;12.108;2022-12-18T01:59:57;72.53;;;53.85;;
26062;SDS011;13837;48.562;12.108;2022-12-18T02:02:27;69.00;;;50.45;;
26062;SDS011;13837;48.562;12.108;2022-12-18T02:04:55;77.68;;;55.58;;
26062;SDS011;13837;48.562;12.108;2022-12-18T02:10:13;75.20;;;54.00;;
26062;SDS011;13837;48.562;12.108;2022-12-18T02:12:42;73.80;;;54.63;;
26062;SDS011;13837;48.562;12.108;2022-12-18T02:18:19;69.68;;;52.92;;
26062;SDS011;13837;48.562;12.108;2022-12-18T02:20:54;67.63;;;52.63;;
26062;SDS011;13837;48.562;12.108;2022-12-18T02:23:56;78.28;;;55.20;;
26062;SDS011;13837;48.562;12.108;2022-12-18T02:26:43;76.40;;;54.45;;
26062;SDS011;13837;48.562;12.108;2022-12-18T02:29:26;77.70;;;55.67;;
26062;SDS011;13837;48.562;12.108;2022-12-18T02:32:00;77.45;;;55.50;;
26062;SDS011;13837;48.562;12.108;2022-12-18T02:36:57;72.22;;;53.92;;
26062;SDS011;13837;48.562;12.108;2022-12-18T02:39:26;67.38;;;54.85;;
26062;SDS011;13837;48.562;12.108;2022-12-18T02:41:59;70.28;;;53.33;;
26062;SDS011;13837;48.562;12.108;2022-12-18T02:44:32;73.60;;;54.50;;
26062;SDS011;13837;48.562;12.108;2022-12-18T02:47:01;72.85;;;54.70;;
26062;SDS011;13837;48.562;12.108;2022-12-18T02:49:42;81.63;;;57.47;;
26062;SDS011;13837;48.562;12.108;2022-12-18T02:58:16;76.25;;;54.85;;
26062;SDS011;13837;48.562;12.108;2022-12-18T03:01:16;70.35;;;54.05;;
26062;SDS011;13837;48.562;12.108;2022-12-18T03:04:09;72.03;;;52.40;;
26062;SDS011;13837;48.562;12.108;2022-12-18T03:06:45;70.38;;;53.63;;
26062;SDS011;13837;48.562;12.108;2022-12-18T03:09:17;72.80;;;55.05;;
26062;SDS011;13837;48.562;12.108;2022-12-18T03:11:52;70.85;;;53.80;;
26062;SDS011;13837;48.562;12.108;2022-12-18T03:14:42;75.93;;;55.63;;
26062;SDS011;13837;48.562;12.108;2022-12-18T03:17:13;72.75;;;54.35;;
26062;SDS011;13837;48.562;12.108;2022-12-18T03:19:43;72.10;;;53.67;;
26062;SDS011;13837;48.562;12.108;2022-12-18T03:22:11;70.22;;;52.40;;
26062;SDS011;13837;48.562;12.108;2022-12-18T03:24:44;70.82;;;52.28;;
26062;SDS011;13837;48.562;12.108;2022-12-18T03:27:12;68.78;;;52.78;;
26062;SDS011;13837;48.562;12.108;2022-12-18T03:30:01;64.07;;;53.25;;
26062;SDS011;13837;48.562;12.108;2022-12-18T03:32:44;62.60;;;52.28;;
26062;SDS011;13837;48.562;12.108;2022-12-18T03:35:13;63.67;;;52.47;;
26062;SDS011;13837;48.562;12.108;2022-12-18T03:37:43;70.20;;;52.60;;
26062;SDS011;13837;48.562;12.108;2022-12-18T03:40:09;73.38;;;54.30;;
26062;SDS011;13837;48.562;12.108;2022-12-18T03:42:42;68.30;;;54.83;;
26062;SDS011;13837;48.562;12.108;2022-12-18T03:45:19;67.43;;;53.30;;
26062;SDS011;13837;48.562;12.108;2022-12-18T03:56:15;61.67;;;52.60;;
26062;SDS011;13837;48.562;12.108;2022-12-18T03:58:43;63.05;;;52.83;;
26062;SDS011;13837;48.562;12.108;2022-12-18T04:01:20;70.45;;;55.60;;
26062;SDS011;13837;48.562;12.108;2022-12-18T04:03:51;77.88;;;56.13;;
26062;SDS011;13837;48.562;12.108;2022-12-18T04:06:19;76.53;;;56.35;;
26062;SDS011;13837;48.562;12.108;2022-12-18T04:08:45;71.13;;;54.83;;
26062;SDS011;13837;48.562;12.108;2022-12-18T04:11:15;72.47;;;55.83;;
26062;SDS011;13837;48.562;12.108;2022-12-18T04:13:43;68.07;;;53.75;;
26062;SDS011;13837;48.562;12.108;2022-12-18T04:16:16;64.82;;;53.03;;
26062;SDS011;13837;48.562;12.108;2022-12-18T04:18:43;65.93;;;51.78;;
26062;SDS011;13837;48.562;12.108;2022-12-18T04:21:09;67.40;;;53.25;;
26062;SDS011;13837;48.562;12.108;2022-12-18T04:23:36;67.28;;;53.05;;
26062;SDS011;13837;48.562;12.108;2022-12-18T04:26:02;63.97;;;52.60;;
26062;SDS011;13837;48.562;12.108;2022-12-18T04:28:42;67.40;;;53.50;;
26062;SDS011;13837;48.562;12.108;2022-12-18T04:31:08;65.03;;;50.88;;
26062;SDS011;13837;48.562;12.108;2022-12-18T04:33:34;66.65;;;52.17;;
26062;SDS011;13837;48.562;12.108;2022-12-18T04:36:00;66.57;;;54.03;;
26062;SDS011;13837;48.562;12.108;2022-12-18T04:38:26;65.95;;;53.58;;
26062;SDS011;13837;48.562;12.108;2022-12-18T04:41:00;65.03;;;53.90;;
26062;SDS011;13837;48.562;12.108;2022-12-18T04:43:26;65.15;;;54.20;;
26062;SDS011;13837;48.562;12.108;2022-12-18T04:45:52;63.08;;;52.25;;
26062;SDS011;13837;48.562;12.108;2022-12-18T04:48:18;67.82;;;51.80;;
26062;SDS011;13837;48.562;12.108;2022-12-18T04:50:46;64.60;;;51.70;;
26062;SDS011;13837;48.562;12.108;2022-12-18T04:53:12;58.88;;;51.92;;
26062;SDS011;13837;48.562;12.108;2022-12-18T04:55:38;67.10;;;52.42;;
26062;SDS011;13837;48.562;12.108;2022-12-18T04:58:04;65.22;;;50.90;;
26062;SDS011;13837;48.562;12.108;2022-12-18T05:00:30;71.88;;;51.72;;
26062;SDS011;13837;48.562;12.108;2022-12-18T05:02:55;66.55;;;52.35;;
26062;SDS011;13837;48.562;12.108;2022-12-18T05:05:21;67.93;;;52.00;;
26062;SDS011;13837;48.562;12.108;2022-12-18T05:07:47;69.30;;;52.40;;
26062;SDS011;13837;48.562;12.108;2022-12-18T05:10:12;72.40;;;54.03;;
26062;SDS011;13837;48.562;12.108;2022-12-18T05:12:38;70.22;;;52.08;;
26062;SDS011;13837;48.562;12.108;2022-12-18T05:15:23;70.28;;;50.65;;
26062;SDS011;13837;48.562;12.108;2022-12-18T05:17:51;65.65;;;52.35;;
26062;SDS011;13837;48.562;12.108;2022-12-18T05:20:17;70.50;;;51.72;;
26062;SDS011;13837;48.562;12.108;2022-12-18T05:22:43;62.85;;;48.78;;
26062;SDS011;13837;48.562;12.108;2022-12-18T05:25:09;63.83;;;49.17;;
26062;SDS011;13837;48.562;12.108;2022-12-18T05:27:35;64.82;;;49.80;;
26062;SDS011;13837;48.562;12.108;2022-12-18T05:30:01;63.72;;;51.25;;
26062;SDS011;13837;48.562;12.108;2022-12-18T05:32:27;63.22;;;49.20;;
26062;SDS011;13837;48.562;12.108;2022-12-18T05:34:52;59.13;;;49.10;;
26062;SDS011;13837;48.562;12.108;2022-12-18T05:37:18;65.43;;;51.42;;
26062;SDS011;13837;48.562;12.108;2022-12-18T05:39:43;64.70;;;51.60;;
26062;SDS011;13837;48.562;12.108;2022-12-18T05:42:09;63.90;;;52.85;;
26062;SDS011;13837;48.562;12.108;2022-12-18T05:44:35;69.55;;;53.80;;
26062;SDS011;13837;48.562;12.108;2022-12-18T05:47:00;60.35;;;49.63;;
26062;SDS011;13837;48.562;12.108;2022-12-18T05:49:26;60.05;;;47.65;;
26062;SDS011;13837;48.562;12.108;2022-12-18T05:51:52;56.47;;;48.40;;
26062;SDS011;13837;48.562;12.108;2022-12-18T05:54:17;52.78;;;40.30;;
26062;SDS011;13837;48.562;12.108;2022-12-18T05:56:43;58.15;;;48.92;;
26062;SDS011;13837;48.562;12.108;2022-12-18T05:59:09;58.45;;;47.30;;
26062;SDS011;13837;48.562;12.108;2022-12-18T06:01:35;56.53;;;46.55;;
26062;SDS011;13837;48.562;12.108;2022-12-18T06:04:00;58.92;;;48.70;;
26062;SDS011;13837;48.562;12.108;2022-12-18T06:06:26;58.70;;;48.90;;
26062;SDS011;13837;48.562;12.108;2022-12-18T06:08:54;59.25;;;46.63;;
26062;SDS011;13837;48.562;12.108;2022-12-18T06:11:21;61.55;;;46.53;;
26062;SDS011;13837;48.562;12.108;2022-12-18T06:13:55;63.45;;;46.25;;
26062;SDS011;13837;48.562;12.108;2022-12-18T06:16:21;61.80;;;43.25;;
26062;SDS011;13837;48.562;12.108;2022-12-18T06:18:48;63.60;;;47.92;;
26062;SDS011;13837;48.562;12.108;2022-12-18T06:21:14;65.15;;;46.97;;
26062;SDS011;13837;48.562;12.108;2022-12-18T06:23:40;60.67;;;47.35;;
26062;SDS011;13837;48.562;12.108;2022-12-18T06:26:06;63.63;;;47.08;;
26062;SDS011;13837;48.562;12.108;2022-12-18T06:28:33;57.25;;;46.08;;
26062;SDS011;13837;48.562;12.108;2022-12-18T06:30:59;59.78;;;44.30;;
26062;SDS011;13837;48.562;12.108;2022-12-18T06:33:27;60.28;;;45.92;;
26062;SDS011;13837;48.562;12.108;2022-12-18T06:35:54;58.97;;;45.70;;
26062;SDS011;13837;48.562;12.108;2022-12-18T06:38:24;60.78;;;46.25;;
26062;SDS011;13837;48.562;12.108;2022-12-18T06:40:50;60.00;;;45.80;;
26062;SDS011;13837;48.562;12.108;2022-12-18T06:43:15;60.47;;;44.60;;
26062;SDS011;13837;48.562;12.108;2022-12-18T06:45:41;67.70;;;46.55;;
26062;SDS011;13837;48.562;12.108;2022-12-18T06:48:07;63.38;;;45.80;;
26062;SDS011;13837;48.562;12.108;2022-12-18T06:50:32;61.03;;;47.22;;
26062;SDS011;13837;48.562;12.108;2022-12-18T06:52:58;63.20;;;46.28;;
26062;SDS011;13837;48.562;12.108;2022-12-18T06:55:24;65.35;;;47.60;;
26062;SDS011;13837;48.562;12.108;2022-12-18T06:57:50;63.70;;;46.05;;
26062;SDS011;13837;48.562;12.108;2022-12-18T07:00:16;63.83;;;45.55;;
26062;SDS011;13837;48.562;12.108;2022-12-18T07:02:42;60.50;;;46.22;;
26062;SDS011;13837;48.562;12.108;2022-12-18T07:05:08;75.63;;;48.97;;
26062;SDS011;13837;48.562;12.108;2022-12-18T07:07:34;70.68;;;47.10;;
26062;SDS011;13837;48.562;12.108;2022-12-18T07:10:00;60.88;;;45.90;;
26062;SDS011;13837;48.562;12.108;2022-12-18T07:12:28;66.10;;;48.92;;
26062;SDS011;13837;48.562;12.108;2022-12-18T07:14:54;69.25;;;46.30;;
26062;SDS011;13837;48.562;12.108;2022-12-18T07:17:19;65.90;;;48.22;;
26062;SDS011;13837;48.562;12.108;2022-12-18T07:19:45;66.00;;;46.95;;
26062;SDS011;13837;48.562;12.108;2022-12-18T07:22:11;62.75;;;46.03;;
26062;SDS011;13837;48.562;12.108;2022-12-18T07:24:36;66.30;;;45.72;;
26062;SDS011;13837;48.562;12.108;2022-12-18T07:27:02;68.70;;;48.25;;
26062;SDS011;13837;48.562;12.108;2022-12-18T07:29:28;57.92;;;44.88;;
26062;SDS011;13837;48.562;12.108;2022-12-18T07:31:54;62.97;;;47.35;;
26062;SDS011;13837;48.562;12.108;2022-12-18T07:34:19;55.55;;;45.47;;
26062;SDS011;13837;48.562;12.108;2022-12-18T07:36:45;56.72;;;45.85;;
26062;SDS011;13837;48.562;12.108;2022-12-18T07:39:11;64.65;;;48.63;;
26062;SDS011;13837;48.562;12.108;2022-12-18T07:41:37;63.47;;;47.65;;
26062;SDS011;13837;48.562;12.108;2022-12-18T07:44:11;55.83;;;44.45;;
26062;SDS011;13837;48.562;12.108;2022-12-18T07:46:37;59.42;;;46.22;;
26062;SDS011;13837;48.562;12.108;2022-12-18T07:49:03;59.95;;;45.03;;
26062;SDS011;13837;48.562;12.108;2022-12-18T07:51:29;55.67;;;42.15;;
26062;SDS011;13837;48.562;12.108;2022-12-18T07:53:55;58.85;;;43.05;;
26062;SDS011;13837;48.562;12.108;2022-12-18T07:56:21;59.83;;;44.60;;
26062;SDS011;13837;48.562;12.108;2022-12-18T07:58:47;69.40;;;47.08;;
26062;SDS011;13837;48.562;12.108;2022-12-18T08:01:13;64.07;;;46.38;;
26062;SDS011;13837;48.562;12.108;2022-12-18T08:03:39;60.33;;;45.70;;
26062;SDS011;13837;48.562;12.108;2022-12-18T08:06:06;64.25;;;45.55;;
26062;SDS011;13837;48.562;12.108;2022-12-18T08:08:34;64.75;;;47.00;;
26062;SDS011;13837;48.562;12.108;2022-12-18T08:11:00;66.53;;;49.45;;
26062;SDS011;13837;48.562;12.108;2022-12-18T08:13:26;62.75;;;48.47;;
26062;SDS011;13837;48.562;12.108;2022-12-18T08:16:14;72.53;;;49.42;;
26062;SDS011;13837;48.562;12.108;2022-12-18T08:18:38;63.58;;;48.22;;
26062;SDS011;13837;48.562;12.108;2022-12-18T08:21:14;63.92;;;49.70;;
26062;SDS011;13837;48.562;12.108;2022-12-18T08:23:42;72.07;;;53.60;;
26062;SDS011;13837;48.562;12.108;2022-12-18T08:26:08;65.80;;;49.10;;
26062;SDS011;13837;48.562;12.108;2022-12-18T08:28:34;65.22;;;48.75;;
26062;SDS011;13837;48.562;12.108;2022-12-18T08:31:00;68.90;;;48.85;;
26062;SDS011;13837;48.562;12.108;2022-12-18T08:33:26;62.88;;;47.63;;
26062;SDS011;13837;48.562;12.108;2022-12-18T08:35:52;63.67;;;48.83;;
26062;SDS011;13837;48.562;12.108;2022-12-18T08:38:18;79.38;;;53.78;;
26062;SDS011;13837;48.562;12.108;2022-12-18T08:40:44;93.97;;;59.55;;
26062;SDS011;13837;48.562;12.108;2022-12-18T08:43:10;60.03;;;46.53;;
26062;SDS011;13837;48.562;12.108;2022-12-18T08:45:55;58.35;;;46.53;;
26062;SDS011;13837;48.562;12.108;2022-12-18T08:48:20;61.05;;;47.22;;
26062;SDS011;13837;48.562;12.108;2022-12-18T08:50:56;57.95;;;46.00;;
26062;SDS011;13837;48.562;12.108;2022-12-18T08:53:23;60.75;;;47.42;;
26062;SDS011;13837;48.562;12.108;2022-12-18T08:55:49;60.05;;;45.78;;
26062;SDS011;13837;48.562;12.108;2022-12-18T08:58:14;64.93;;;48.90;;
26062;SDS011;13837;48.562;12.108;2022-12-18T09:00:40;62.53;;;48.45;;
26062;SDS011;13837;48.562;12.108;2022-12-18T09:03:10;68.30;;;50.90;;
26062;SDS011;13837;48.562;12.108;2022-12-18T09:05:41;70.85;;;51.63;;
26062;SDS011;13837;48.562;12.108;2022-12-18T09:08:07;69.07;;;50.40;;
26062;SDS011;13837;48.562;12.108;2022-12-18T09:10:33;63.42;;;46.85;;
26062;SDS011;13837;48.562;12.108;2022-12-18T09:12:59;63.85;;;49.08;;
26062;SDS011;13837;48.562;12.108;2022-12-18T09:15:25;65.88;;;48.95;;
26062;SDS011;13837;48.562;12.108;2022-12-18T09:17:51;58.70;;;46.78;;
26062;SDS011;13837;48.562;12.108;2022-12-18T09:20:18;55.30;;;45.80;;
26062;SDS011;13837;48.562;12.108;2022-12-18T09:22:44;62.28;;;48.30;;
26062;SDS011;13837;48.562;12.108;2022-12-18T09:25:10;58.50;;;45.17;;
26062;SDS011;13837;48.562;12.108;2022-12-18T09:27:35;60.40;;;46.92;;
26062;SDS011;13837;48.562;12.108;2022-12-18T09:30:01;64.53;;;48.22;;
26062;SDS011;13837;48.562;12.108;2022-12-18T09:32:28;59.58;;;45.58;;
26062;SDS011;13837;48.562;12.108;2022-12-18T09:34:53;53.70;;;42.83;;
26062;SDS011;13837;48.562;12.108;2022-12-18T09:37:19;52.35;;;44.92;;
26062;SDS011;13837;48.562;12.108;2022-12-18T09:39:45;49.63;;;43.85;;
26062;SDS011;13837;48.562;12.108;2022-12-18T09:42:17;49.13;;;42.33;;
26062;SDS011;13837;48.562;12.108;2022-12-18T09:44:53;51.50;;;45.63;;
26062;SDS011;13837;48.562;12.108;2022-12-18T09:49:58;53.70;;;45.78;;
26062;SDS011;13837;48.562;12.108;2022-12-18T09:52:49;56.97;;;47.65;;
26062;SDS011;13837;48.562;12.108;2022-12-18T09:55:25;58.35;;;46.45;;
26062;SDS011;13837;48.562;12.108;2022-12-18T09:57:57;54.78;;;45.65;;
26062;SDS011;13837;48.562;12.108;2022-12-18T10:00:29;51.30;;;43.30;;
26062;SDS011;13837;48.562;12.108;2022-12-18T10:03:28;50.08;;;42.55;;
26062;SDS011;13837;48.562;12.108;2022-12-18T10:06:07;50.08;;;39.20;;
26062;SDS011;13837;48.562;12.108;2022-12-18T10:09:43;51.20;;;38.67;;
26062;SDS011;13837;48.562;12.108;2022-12-18T10:15:02;48.78;;;36.50;;
26062;SDS011;13837;48.562;12.108;2022-12-18T10:17:37;43.22;;;34.50;;
26062;SDS011;13837;48.562;12.108;2022-12-18T10:25:24;57.80;;;42.08;;
26062;SDS011;13837;48.562;12.108;2022-12-18T10:28:00;43.90;;;33.60;;
26062;SDS011;13837;48.562;12.108;2022-12-18T10:30:38;50.72;;;38.55;;
26062;SDS011;13837;48.562;12.108;2022-12-18T10:33:05;47.65;;;39.13;;
26062;SDS011;13837;48.562;12.108;2022-12-18T10:35:31;66.55;;;46.40;;
26062;SDS011;13837;48.562;12.108;2022-12-18T10:40:32;73.30;;;49.85;;
26062;SDS011;13837;48.562;12.108;2022-12-18T10:43:12;64.97;;;45.70;;
26062;SDS011;13837;48.562;12.108;2022-12-18T10:45:39;46.83;;;40.15;;
26062;SDS011;13837;48.562;12.108;2022-12-18T10:48:19;46.28;;;40.05;;
26062;SDS011;13837;48.562;12.108;2022-12-18T10:50:47;49.47;;;38.97;;
26062;SDS011;13837;48.562;12.108;2022-12-18T10:53:22;44.85;;;40.30;;
26062;SDS011;13837;48.562;12.108;2022-12-18T10:55:56;47.17;;;40.20;;
26062;SDS011;13837;48.562;12.108;2022-12-18T11:03:44;49.80;;;42.70;;
26062;SDS011;13837;48.562;12.108;2022-12-18T11:06:11;50.15;;;41.90;;
26062;SDS011;13837;48.562;12.108;2022-12-18T11:08:39;57.75;;;49.80;;
26062;SDS011;13837;48.562;12.108;2022-12-18T11:11:09;58.83;;;46.90;;
26062;SDS011;13837;48.562;12.108;2022-12-18T11:13:48;53.33;;;43.50;;
26062;SDS011;13837;48.562;12.108;2022-12-18T11:16:27;49.47;;;40.53;;
26062;SDS011;13837;48.562;12.108;2022-12-18T11:19:06;45.72;;;40.78;;
26062;SDS011;13837;48.562;12.108;2022-12-18T11:21:40;47.50;;;39.80;;
26062;SDS011;13837;48.562;12.108;2022-12-18T11:24:13;44.60;;;39.85;;
26062;SDS011;13837;48.562;12.108;2022-12-18T11:27:03;46.47;;;40.42;;
26062;SDS011;13837;48.562;12.108;2022-12-18T11:29:32;50.90;;;41.22;;
26062;SDS011;13837;48.562;12.108;2022-12-18T11:34:45;47.22;;;41.47;;
26062;SDS011;13837;48.562;12.108;2022-12-18T11:39:41;44.50;;;39.65;;
26062;SDS011;13837;48.562;12.108;2022-12-18T11:42:51;43.78;;;38.80;;
26062;SDS011;13837;48.562;12.108;2022-12-18T11:45:34;47.28;;;40.30;;
26062;SDS011;13837;48.562;12.108;2022-12-18T11:48:11;43.80;;;39.05;;
26062;SDS011;13837;48.562;12.108;2022-12-18T11:50:50;49.47;;;41.65;;
26062;SDS011;13837;48.562;12.108;2022-12-18T11:53:16;48.05;;;41.42;;
26062;SDS011;13837;48.562;12.108;2022-12-18T11:55:51;48.70;;;40.95;;
26062;SDS011;13837;48.562;12.108;2022-12-18T11:58:42;48.38;;;40.55;;
26062;SDS011;13837;48.562;12.108;2022-12-18T12:01:21;51.65;;;40.70;;
26062;SDS011;13837;48.562;12.108;2022-12-18T12:14:57;72.53;;;51.45;;
26062;SDS011;13837;48.562;12.108;2022-12-18T12:26:23;51.95;;;40.90;;
26062;SDS011;13837;48.562;12.108;2022-12-18T12:34:18;51.80;;;43.90;;
26062;SDS011;13837;48.562;12.108;2022-12-18T12:39:28;48.85;;;40.72;;
26062;SDS011;13837;48.562;12.108;2022-12-18T12:41:59;51.85;;;40.92;;
26062;SDS011;13837;48.562;12.108;2022-12-18T12:44:46;47.35;;;40.40;;
26062;SDS011;13837;48.562;12.108;2022-12-18T12:47:20;49.97;;;40.83;;
26062;SDS011;13837;48.562;12.108;2022-12-18T12:49:52;51.08;;;40.80;;
26062;SDS011;13837;48.562;12.108;2022-12-18T12:52:30;49.15;;;43.00;;
26062;SDS011;13837;48.562;12.108;2022-12-18T12:55:25;48.97;;;43.67;;
26062;SDS011;13837;48.562;12.108;2022-12-18T12:57:57;51.03;;;42.35;;
26062;SDS011;13837;48.562;12.108;2022-12-18T13:00:25;51.88;;;44.05;;
26062;SDS011;13837;48.562;12.108;2022-12-18T13:03:01;48.72;;;41.95;;
26062;SDS011;13837;48.562;12.108;2022-12-18T13:05:58;53.80;;;42.53;;
26062;SDS011;13837;48.562;12.108;2022-12-18T13:08:32;46.67;;;40.70;;
26062;SDS011;13837;48.562;12.108;2022-12-18T13:14:26;48.72;;;42.00;;
26062;SDS011;13837;48.562;12.108;2022-12-18T13:19:48;54.92;;;44.38;;
26062;SDS011;13837;48.562;12.108;2022-12-18T13:22:30;48.97;;;43.92;;
26062;SDS011;13837;48.562;12.108;2022-12-18T13:24:59;56.22;;;44.70;;
26062;SDS011;13837;48.562;12.108;2022-12-18T13:38:35;50.78;;;44.65;;
26062;SDS011;13837;48.562;12.108;2022-12-18T13:41:01;49.53;;;43.22;;
26062;SDS011;13837;48.562;12.108;2022-12-18T13:48:26;57.78;;;47.28;;
26062;SDS011;13837;48.562;12.108;2022-12-18T13:53:59;51.63;;;45.22;;
26062;SDS011;13837;48.562;12.108;2022-12-18T13:56:26;50.40;;;42.40;;
26062;SDS011;13837;48.562;12.108;2022-12-18T13:59:03;48.47;;;43.28;;
26062;SDS011;13837;48.562;12.108;2022-12-18T14:01:41;48.95;;;43.50;;
26062;SDS011;13837;48.562;12.108;2022-12-18T14:06:56;53.42;;;44.38;;
26062;SDS011;13837;48.562;12.108;2022-12-18T14:09:47;48.63;;;42.22;;
26062;SDS011;13837;48.562;12.108;2022-12-18T14:12:17;50.22;;;42.72;;
26062;SDS011;13837;48.562;12.108;2022-12-18T14:15:52;51.97;;;41.63;;
26062;SDS011;13837;48.562;12.108;2022-12-18T14:20:49;50.17;;;42.10;;
26062;SDS011;13837;48.562;12.108;2022-12-18T14:28:57;52.17;;;43.10;;
26062;SDS011;13837;48.562;12.108;2022-12-18T14:31:30;47.40;;;41.53;;
26062;SDS011;13837;48.562;12.108;2022-12-18T14:33:56;51.40;;;44.22;;
26062;SDS011;13837;48.562;12.108;2022-12-18T14:36:23;55.83;;;44.55;;
26062;SDS011;13837;48.562;12.108;2022-12-18T14:38:51;58.97;;;43.17;;
26062;SDS011;13837;48.562;12.108;2022-12-18T14:41:24;52.40;;;42.65;;
26062;SDS011;13837;48.562;12.108;2022-12-18T14:43:51;50.25;;;42.42;;
26062;SDS011;13837;48.562;12.108;2022-12-18T14:46:38;53.50;;;43.17;;
26062;SDS011;13837;48.562;12.108;2022-12-18T14:52:00;51.55;;;43.42;;
26062;SDS011;13837;48.562;12.108;2022-12-18T14:54:28;50.13;;;42.30;;
26062;SDS011;13837;48.562;12.108;2022-12-18T14:59:30;52.95;;;44.63;;
26062;SDS011;13837;48.562;12.108;2022-12-18T15:04:41;60.15;;;45.40;;
26062;SDS011;13837;48.562;12.108;2022-12-18T15:07:10;66.78;;;49.67;;
26062;SDS011;13837;48.562;12.108;2022-12-18T15:15:05;60.25;;;46.60;;
26062;SDS011;13837;48.562;12.108;2022-12-18T15:17:56;66.22;;;48.58;;
26062;SDS011;13837;48.562;12.108;2022-12-18T15:20:26;73.07;;;51.40;;
26062;SDS011;13837;48.562;12.108;2022-12-18T15:22:52;66.88;;;51.22;;
26062;SDS011;13837;48.562;12.108;2022-12-18T15:25:36;74.07;;;52.28;;
26062;SDS011;13837;48.562;12.108;2022-12-18T15:28:04;69.03;;;51.60;;
26062;SDS011;13837;48.562;12.108;2022-12-18T15:36:33;58.50;;;45.20;;
26062;SDS011;13837;48.562;12.108;2022-12-18T15:39:01;58.80;;;43.53;;
26062;SDS011;13837;48.562;12.108;2022-12-18T15:41:30;62.15;;;48.35;;
26062;SDS011;13837;48.562;12.108;2022-12-18T15:43:58;59.67;;;44.88;;
26062;SDS011;13837;48.562;12.108;2022-12-18T15:46:24;52.28;;;43.42;;
26062;SDS011;13837;48.562;12.108;2022-12-18T15:48:52;73.35;;;54.95;;
26062;SDS011;13837;48.562;12.108;2022-12-18T15:51:21;62.00;;;48.28;;
26062;SDS011;13837;48.562;12.108;2022-12-18T15:53:50;57.25;;;47.63;;
26062;SDS011;13837;48.562;12.108;2022-12-18T15:56:18;62.35;;;46.40;;
26062;SDS011;13837;48.562;12.108;2022-12-18T15:59:04;56.03;;;44.33;;
26062;SDS011;13837;48.562;12.108;2022-12-18T16:01:35;55.80;;;44.40;;
26062;SDS011;13837;48.562;12.108;2022-12-18T16:04:01;59.42;;;46.80;;
26062;SDS011;13837;48.562;12.108;2022-12-18T16:06:26;55.00;;;44.50;;
26062;SDS011;13837;48.562;12.108;2022-12-18T16:08:52;62.75;;;47.92;;
26062;SDS011;13837;48.562;12.108;2022-12-18T16:11:22;62.88;;;50.17;;
26062;SDS011;13837;48.562;12.108;2022-12-18T16:14:08;76.35;;;54.60;;
26062;SDS011;13837;48.562;12.108;2022-12-18T16:16:39;62.88;;;49.25;;
26062;SDS011;13837;48.562;12.108;2022-12-18T16:19:05;60.08;;;48.65;;
26062;SDS011;13837;48.562;12.108;2022-12-18T16:21:30;64.00;;;50.70;;
26062;SDS011;13837;48.562;12.108;2022-12-18T16:23:56;61.10;;;53.97;;
26062;SDS011;13837;48.562;12.108;2022-12-18T16:26:22;64.07;;;50.97;;
26062;SDS011;13837;48.562;12.108;2022-12-18T16:28:47;56.85;;;48.63;;
26062;SDS011;13837;48.562;12.108;2022-12-18T16:31:13;60.22;;;47.85;;
26062;SDS011;13837;48.562;12.108;2022-12-18T16:33:39;56.70;;;44.72;;
26062;SDS011;13837;48.562;12.108;2022-12-18T16:36:04;54.90;;;46.60;;
26062;SDS011;13837;48.562;12.108;2022-12-18T16:38:30;57.30;;;46.05;;
26062;SDS011;13837;48.562;12.108;2022-12-18T16:40:56;59.03;;;49.28;;
26062;SDS011;13837;48.562;12.108;2022-12-18T16:43:40;65.80;;;50.95;;
26062;SDS011;13837;48.562;12.108;2022-12-18T16:46:06;65.07;;;49.70;;